createdAt,value
2024-04-30T00:00:04.750Z,0.50
2024-04-30T00:01:04.756Z,0.50
2024-04-30T00:02:04.503Z,0.51
2024-04-30T00:03:04.362Z,0.51
2024-04-30T00:04:04.337Z,0.50
2024-04-30T00:05:04.185Z,0.50
2024-04-30T00:06:04.008Z,0.51
2024-04-30T00:07:03.971Z,0.51
2024-04-30T00:08:03.771Z,0.50
2024-04-30T00:09:03.668Z,0.50
2024-04-30T00:10:03.517Z,0.51
2024-04-30T00:11:03.434Z,0.50
2024-04-30T00:12:03.269Z,0.51
2024-04-30T00:13:03.248Z,0.53
2024-04-30T00:14:03.038Z,0.53
2024-04-30T00:15:02.966Z,0.53
2024-04-30T00:16:02.829Z,0.55
2024-04-30T00:17:02.698Z,0.55
2024-04-30T00:18:02.635Z,0.58
2024-04-30T00:19:02.524Z,0.59
2024-04-30T00:20:02.521Z,0.59
2024-04-30T00:21:02.182Z,0.59
2024-04-30T00:22:02.086Z,0.60
2024-04-30T00:23:01.955Z,0.60
2024-04-30T00:24:01.813Z,0.62
2024-04-30T00:25:01.753Z,0.62
2024-04-30T00:26:01.601Z,0.62
2024-04-30T00:27:01.466Z,0.62
2024-04-30T00:28:01.432Z,0.60
2024-04-30T00:29:01.212Z,0.61
2024-04-30T00:30:01.104Z,0.60
2024-04-30T00:31:01.009Z,0.60
2024-04-30T00:32:00.909Z,0.61
2024-04-30T00:33:00.775Z,0.58
2024-04-30T00:34:00.751Z,0.60
2024-04-30T00:35:00.532Z,0.59
2024-04-30T00:36:00.477Z,0.59
2024-04-30T00:37:00.277Z,0.60
2024-04-30T00:38:00.217Z,0.60
2024-04-30T00:39:00.073Z,0.59
2024-04-30T00:39:59.946Z,0.59
2024-04-30T00:40:59.875Z,0.60
2024-04-30T00:41:59.675Z,0.58
2024-04-30T00:42:59.570Z,0.58
2024-04-30T00:43:59.463Z,0.56
2024-04-30T00:44:59.366Z,0.56
2024-04-30T00:45:59.276Z,0.57
2024-04-30T00:46:59.145Z,0.58
2024-04-30T00:47:59.172Z,0.58
2024-04-30T00:48:59.037Z,0.59
2024-04-30T00:49:58.781Z,0.58
2024-04-30T00:50:58.665Z,0.60
2024-04-30T00:51:58.576Z,0.60
2024-04-30T00:52:58.422Z,0.60
2024-04-30T00:53:58.298Z,0.61
2024-04-30T00:54:58.227Z,0.60
2024-04-30T00:55:58.072Z,0.61
2024-04-30T00:56:57.963Z,0.60
2024-04-30T00:57:57.921Z,0.60
2024-04-30T00:58:57.733Z,0.60
2024-04-30T00:59:57.604Z,0.60
2024-04-30T01:00:57.545Z,0.59
2024-04-30T01:01:57.392Z,0.58
2024-04-30T01:02:57.357Z,0.56
2024-04-30T01:03:57.169Z,0.56
2024-04-30T01:04:57.067Z,0.55
2024-04-30T01:05:56.945Z,0.54
2024-04-30T01:06:57.004Z,0.54
2024-04-30T01:07:56.699Z,0.53
2024-04-30T01:08:56.569Z,0.53
2024-04-30T01:09:56.587Z,0.53
2024-04-30T01:10:56.305Z,0.54
2024-04-30T01:11:56.239Z,0.53
2024-04-30T01:12:56.081Z,0.54
2024-04-30T01:13:55.940Z,0.53
2024-04-30T01:14:55.811Z,0.54
2024-04-30T01:15:55.703Z,0.53
2024-04-30T01:16:55.598Z,0.52
2024-04-30T01:17:55.510Z,0.52
2024-04-30T01:18:55.380Z,0.52
2024-04-30T01:19:55.249Z,0.50
2024-04-30T01:20:55.130Z,0.51
2024-04-30T01:21:55.010Z,0.51
2024-04-30T01:22:54.880Z,0.52
2024-04-30T01:23:54.759Z,0.52
2024-04-30T01:24:54.632Z,0.50
2024-04-30T01:25:54.512Z,0.50
2024-04-30T01:26:56.245Z,0.50
2024-04-30T01:27:54.251Z,0.51
2024-04-30T01:28:54.094Z,0.51
2024-04-30T01:29:53.944Z,0.52
2024-04-30T01:30:53.806Z,0.52
2024-04-30T01:31:53.669Z,0.52
2024-04-30T01:32:53.587Z,0.54
2024-04-30T01:34:00.989Z,0.50
2024-04-30T01:35:00.975Z,0.50
2024-04-30T01:36:01.022Z,0.50
2024-04-30T01:37:01.050Z,0.50
2024-04-30T01:38:00.966Z,0.50
2024-04-30T01:39:00.962Z,0.51
2024-04-30T01:40:01.035Z,0.51
2024-04-30T01:41:00.964Z,0.51
2024-04-30T01:42:01.019Z,0.50
2024-04-30T01:43:01.058Z,0.51
2024-04-30T01:44:00.977Z,0.50
2024-04-30T01:45:01.007Z,0.50
2024-04-30T01:46:01.025Z,0.51
2024-04-30T01:47:00.969Z,0.51
2024-04-30T01:48:01.172Z,0.50
2024-04-30T01:49:01.031Z,0.51
2024-04-30T01:50:00.972Z,0.50
2024-04-30T01:51:00.982Z,0.50
2024-04-30T01:52:01.062Z,0.52
2024-04-30T01:53:00.961Z,0.52
2024-04-30T01:54:00.970Z,0.51
2024-04-30T01:55:01.174Z,0.51
2024-04-30T01:56:00.991Z,0.50
2024-04-30T01:57:01.036Z,0.50
2024-04-30T01:58:01.150Z,0.51
2024-04-30T01:59:01.016Z,0.50
2024-04-30T02:00:01.068Z,0.51
2024-04-30T02:01:01.073Z,0.51
2024-04-30T02:02:01.102Z,0.52
2024-04-30T02:03:01.079Z,0.53
2024-04-30T02:04:01.067Z,0.53
2024-04-30T02:05:07.786Z,0.52
2024-04-30T02:06:01.974Z,0.52
2024-04-30T02:07:01.078Z,0.52
2024-04-30T02:08:01.067Z,0.52
2024-04-30T02:09:01.064Z,0.52
2024-04-30T02:10:01.095Z,0.52
2024-04-30T02:11:01.107Z,0.51
2024-04-30T02:12:00.968Z,0.52
2024-04-30T02:13:01.050Z,0.53
2024-04-30T02:14:00.961Z,0.53
2024-04-30T02:15:00.966Z,0.52
2024-04-30T02:16:00.983Z,0.52
2024-04-30T02:17:01.008Z,0.50
2024-04-30T02:18:01.002Z,0.51
2024-04-30T02:19:00.987Z,0.51
2024-04-30T02:20:00.972Z,0.51
2024-04-30T02:21:00.978Z,0.51
2024-04-30T02:22:01.009Z,0.54
2024-04-30T02:23:01.002Z,0.55
2024-04-30T02:24:00.989Z,0.57
2024-04-30T02:25:01.105Z,0.61
2024-04-30T02:26:00.984Z,0.63
2024-04-30T02:27:00.990Z,0.65
2024-04-30T02:28:01.015Z,0.66
2024-04-30T02:29:01.006Z,0.68
2024-04-30T02:30:01.115Z,0.65
2024-04-30T02:31:01.124Z,0.65
2024-04-30T02:32:01.057Z,0.64
2024-04-30T02:33:01.356Z,0.64
2024-04-30T02:34:01.280Z,0.65
2024-04-30T02:35:01.245Z,0.64
2024-04-30T02:36:01.335Z,0.65
2024-04-30T02:37:01.422Z,0.65
2024-04-30T02:38:01.328Z,0.65
2024-04-30T02:39:01.351Z,0.66
2024-04-30T02:40:01.602Z,0.64
2024-04-30T02:41:01.388Z,0.64
2024-04-30T02:42:01.410Z,0.66
2024-04-30T02:43:01.524Z,0.65
2024-04-30T02:44:01.497Z,0.64
2024-04-30T02:45:01.548Z,0.65
2024-04-30T02:46:01.639Z,0.65
2024-04-30T02:47:01.710Z,0.66
2024-04-30T02:48:01.798Z,0.64
2024-04-30T02:49:01.695Z,0.64
2024-04-30T02:50:01.682Z,0.63
2024-04-30T02:51:01.694Z,0.63
2024-04-30T02:52:01.743Z,0.63
2024-04-30T02:53:01.767Z,0.64
2024-04-30T02:54:01.761Z,0.64
2024-04-30T02:55:01.769Z,0.64
2024-04-30T02:56:01.730Z,0.64
2024-04-30T02:57:01.749Z,0.64
2024-04-30T02:58:01.786Z,0.64
2024-04-30T02:59:01.763Z,0.64
2024-04-30T03:00:01.895Z,0.64
2024-04-30T03:01:01.906Z,0.65
2024-04-30T03:02:01.806Z,0.64
2024-04-30T03:03:01.817Z,0.63
2024-04-30T03:04:02.016Z,0.64
2024-04-30T03:05:01.849Z,0.64
2024-04-30T03:06:01.849Z,0.65
2024-04-30T03:07:01.877Z,0.63
2024-04-30T03:08:01.868Z,0.64
2024-04-30T03:09:01.890Z,0.64
2024-04-30T03:10:01.929Z,0.64
2024-04-30T03:11:01.915Z,0.65
2024-04-30T03:12:01.900Z,0.65
2024-04-30T03:13:01.967Z,0.68
2024-04-30T03:14:01.899Z,0.67
2024-04-30T03:15:01.912Z,0.67
2024-04-30T03:16:01.933Z,0.68
2024-04-30T03:17:01.927Z,0.67
2024-04-30T03:18:02.016Z,0.68
2024-04-30T03:19:01.941Z,0.69
2024-04-30T03:20:01.935Z,0.67
2024-04-30T03:21:01.964Z,0.68
2024-04-30T03:22:02.052Z,0.68
2024-04-30T03:23:02.074Z,0.67
2024-04-30T03:24:02.125Z,0.67
2024-04-30T03:25:02.255Z,0.67
2024-04-30T03:26:02.205Z,0.67
2024-04-30T03:27:02.256Z,0.67
2024-04-30T03:28:03.317Z,0.68
2024-04-30T03:29:02.333Z,0.68
2024-04-30T03:30:02.506Z,0.67
2024-04-30T03:31:02.446Z,0.67
2024-04-30T03:32:02.479Z,0.67
2024-04-30T03:33:02.761Z,0.65
2024-04-30T03:34:02.609Z,0.66
2024-04-30T03:35:02.636Z,0.67
2024-04-30T03:36:02.704Z,0.66
2024-04-30T03:37:02.787Z,0.67
2024-04-30T03:38:02.776Z,0.67
2024-04-30T03:39:02.778Z,0.68
2024-04-30T03:40:02.838Z,0.68
2024-04-30T03:41:02.799Z,0.68
2024-04-30T03:42:02.817Z,0.67
2024-04-30T03:43:02.835Z,0.69
2024-04-30T03:44:02.832Z,0.71
2024-04-30T03:45:02.836Z,0.68
2024-04-30T03:46:02.868Z,0.70
2024-04-30T03:47:02.861Z,0.72
2024-04-30T03:48:02.914Z,0.71
2024-04-30T03:49:03.014Z,0.70
2024-04-30T03:50:03.102Z,0.70
2024-04-30T03:51:03.016Z,0.70
2024-04-30T03:52:03.054Z,0.71
2024-04-30T03:53:03.050Z,0.71
2024-04-30T03:54:03.060Z,0.72
2024-04-30T03:55:03.109Z,0.75
2024-04-30T03:56:03.084Z,0.75
2024-04-30T03:57:03.089Z,0.74
2024-04-30T03:58:03.121Z,0.73
2024-04-30T03:59:03.146Z,0.74
2024-04-30T04:00:03.130Z,0.74
2024-04-30T04:01:03.311Z,0.72
2024-04-30T04:02:03.144Z,0.73
2024-04-30T04:03:03.359Z,0.73
2024-04-30T04:04:03.245Z,0.74
2024-04-30T04:05:03.291Z,0.74
2024-04-30T04:06:03.199Z,0.73
2024-04-30T04:07:03.244Z,0.73
2024-04-30T04:08:03.210Z,0.74
2024-04-30T04:09:03.216Z,0.75
2024-04-30T04:10:03.288Z,0.75
2024-04-30T04:11:03.242Z,0.76
2024-04-30T04:12:03.256Z,0.77
2024-04-30T04:13:03.287Z,0.78
2024-04-30T04:14:03.277Z,0.79
2024-04-30T04:15:03.320Z,0.82
2024-04-30T04:16:03.306Z,0.80
2024-04-30T04:17:03.312Z,0.79
2024-04-30T04:18:03.360Z,0.78
2024-04-30T04:19:03.366Z,0.77
2024-04-30T04:20:03.343Z,0.78
2024-04-30T04:21:03.360Z,0.78
2024-04-30T04:22:03.400Z,0.76
2024-04-30T04:23:03.381Z,0.77
2024-04-30T04:24:03.395Z,0.74
2024-04-30T04:25:03.437Z,0.75
2024-04-30T04:26:03.478Z,0.77
2024-04-30T04:27:03.426Z,0.78
2024-04-30T04:28:03.452Z,0.78
2024-04-30T04:29:03.441Z,0.79
2024-04-30T04:30:03.495Z,0.82
2024-04-30T04:31:03.544Z,0.82
2024-04-30T04:32:03.630Z,0.84
2024-04-30T04:33:10.905Z,0.50
2024-04-30T04:34:10.861Z,0.50
2024-04-30T04:35:10.869Z,0.50
2024-04-30T04:36:10.845Z,0.50
2024-04-30T04:37:10.847Z,0.50
2024-04-30T04:38:10.839Z,0.50
2024-04-30T04:39:10.843Z,0.52
2024-04-30T04:40:10.889Z,0.51
2024-04-30T04:41:10.828Z,0.50
2024-04-30T04:42:10.833Z,0.50
2024-04-30T04:43:10.848Z,0.51
2024-04-30T04:44:10.836Z,0.51
2024-04-30T04:45:10.814Z,0.53
2024-04-30T04:46:10.804Z,0.54
2024-04-30T04:47:10.814Z,0.55
2024-04-30T04:48:10.880Z,0.57
2024-04-30T04:49:10.872Z,0.60
2024-04-30T04:50:10.805Z,0.59
2024-04-30T04:51:10.789Z,0.57
2024-04-30T04:52:10.800Z,0.56
2024-04-30T04:53:10.786Z,0.55
2024-04-30T04:54:10.774Z,0.55
2024-04-30T04:55:10.785Z,0.54
2024-04-30T04:56:10.770Z,0.56
2024-04-30T04:57:10.753Z,0.56
2024-04-30T04:58:10.794Z,0.56
2024-04-30T04:59:10.736Z,0.55
2024-04-30T05:00:10.717Z,0.53
2024-04-30T05:01:12.791Z,0.53
2024-04-30T05:02:10.746Z,0.55
2024-04-30T05:03:10.684Z,0.55
2024-04-30T05:04:10.742Z,0.59
2024-04-30T05:05:10.681Z,0.61
2024-04-30T05:06:10.701Z,0.62
2024-04-30T05:07:10.759Z,0.63
2024-04-30T05:08:10.751Z,0.62
2024-04-30T05:09:10.820Z,0.63
2024-04-30T05:10:10.874Z,0.62
2024-04-30T05:11:10.828Z,0.61
2024-04-30T05:12:10.838Z,0.61
2024-04-30T05:13:10.873Z,0.59
2024-04-30T05:14:10.837Z,0.56
2024-04-30T05:15:10.820Z,0.56
2024-04-30T05:16:10.914Z,0.55
2024-04-30T05:17:10.845Z,0.53
2024-04-30T05:18:10.853Z,0.53
2024-04-30T05:19:10.879Z,0.51
2024-04-30T05:20:10.883Z,0.51
2024-04-30T05:21:10.879Z,0.51
2024-04-30T05:22:10.884Z,0.51
2024-04-30T05:23:10.823Z,0.50
2024-04-30T05:24:10.986Z,0.50
2024-04-30T05:25:10.818Z,0.50
2024-04-30T05:26:10.805Z,0.50
2024-04-30T05:27:10.771Z,0.51
2024-04-30T05:28:10.762Z,0.51
2024-04-30T05:29:10.988Z,0.50
2024-04-30T05:30:10.666Z,0.52
2024-04-30T05:31:10.975Z,0.55
2024-04-30T05:32:10.715Z,0.60
2024-04-30T05:33:10.792Z,0.67
2024-04-30T05:34:11.016Z,0.73
2024-04-30T05:35:10.702Z,0.83
2024-04-30T05:36:10.713Z,0.98
2024-04-30T05:37:10.715Z,1.16
2024-04-30T05:38:10.698Z,1.30
2024-04-30T05:39:10.999Z,1.48
2024-04-30T05:40:10.709Z,1.62
2024-04-30T05:41:10.721Z,1.90
2024-04-30T05:42:10.767Z,2.17
2024-04-30T05:43:10.851Z,2.12
2024-04-30T05:44:10.851Z,2.15
2024-04-30T05:45:12.767Z,2.41
2024-04-30T05:46:11.054Z,2.41
2024-04-30T05:47:10.963Z,2.68
2024-04-30T05:48:11.010Z,2.92
2024-04-30T05:49:11.028Z,2.80
2024-04-30T05:50:10.919Z,3.03
2024-04-30T05:51:10.911Z,3.24
2024-04-30T05:52:10.952Z,3.50
2024-04-30T05:53:10.934Z,3.66
2024-04-30T05:54:10.977Z,3.89
2024-04-30T05:55:11.038Z,4.17
2024-04-30T05:56:11.059Z,4.51
2024-04-30T05:57:11.055Z,4.85
2024-04-30T05:58:11.062Z,5.19
2024-04-30T05:59:11.504Z,6.31
2024-04-30T06:00:11.023Z,7.39
2024-04-30T06:01:11.086Z,8.19
2024-04-30T06:02:11.005Z,9.19
2024-04-30T06:03:11.022Z,9.76
2024-04-30T06:04:11.026Z,10.40
2024-04-30T06:05:11.146Z,10.65
2024-04-30T06:06:10.964Z,11.31
2024-04-30T06:07:11.041Z,11.49
2024-04-30T06:08:11.035Z,11.93
2024-04-30T06:09:11.060Z,12.46
2024-04-30T06:10:11.617Z,13.23
2024-04-30T06:11:11.059Z,13.69
2024-04-30T06:12:11.010Z,13.99
2024-04-30T06:13:11.056Z,14.34
2024-04-30T06:14:10.977Z,14.72
2024-04-30T06:15:11.019Z,14.54
2024-04-30T06:16:11.035Z,15.01
2024-04-30T06:17:10.975Z,15.34
2024-04-30T06:18:11.053Z,14.91
2024-04-30T06:19:10.990Z,15.24
2024-04-30T06:20:10.917Z,15.53
2024-04-30T06:21:12.147Z,16.19
2024-04-30T06:22:10.938Z,16.20
2024-04-30T06:23:10.909Z,16.81
2024-04-30T06:24:10.931Z,16.27
2024-04-30T06:25:11.003Z,16.20
2024-04-30T06:26:10.962Z,16.05
2024-04-30T06:27:10.976Z,16.19
2024-04-30T06:28:10.968Z,16.15
2024-04-30T06:29:10.994Z,16.29
2024-04-30T06:30:11.041Z,15.58
2024-04-30T06:31:11.505Z,15.39
2024-04-30T06:32:11.011Z,12.95
2024-04-30T06:33:11.040Z,11.50
2024-04-30T06:34:11.109Z,10.10
2024-04-30T06:35:10.986Z,8.39
2024-04-30T06:36:10.962Z,7.93
2024-04-30T06:37:11.012Z,7.75
2024-04-30T06:38:10.970Z,7.98
2024-04-30T06:39:11.007Z,8.14
2024-04-30T06:40:10.972Z,8.09
2024-04-30T06:41:10.972Z,8.16
2024-04-30T06:42:10.954Z,8.70
2024-04-30T06:43:10.967Z,9.10
2024-04-30T06:44:10.934Z,9.26
2024-04-30T06:45:10.919Z,9.16
2024-04-30T06:46:11.024Z,9.12
2024-04-30T06:47:10.890Z,9.30
2024-04-30T06:48:11.023Z,9.46
2024-04-30T06:49:10.986Z,10.02
2024-04-30T06:50:10.960Z,10.58
2024-04-30T06:51:11.091Z,10.87
2024-04-30T06:52:11.049Z,11.18
2024-04-30T06:53:11.063Z,11.44
2024-04-30T06:54:11.074Z,11.56
2024-04-30T06:55:11.150Z,11.85
2024-04-30T06:56:11.134Z,12.09
2024-04-30T06:57:11.154Z,12.12
2024-04-30T06:58:11.172Z,12.32
2024-04-30T06:59:11.153Z,12.84
2024-04-30T07:00:11.187Z,13.02
2024-04-30T07:01:11.290Z,13.23
2024-04-30T07:02:11.243Z,13.27
2024-04-30T07:03:11.366Z,13.26
2024-04-30T07:04:11.630Z,13.49
2024-04-30T07:05:11.522Z,13.69
2024-04-30T07:06:11.360Z,13.61
2024-04-30T07:07:11.439Z,13.83
2024-04-30T07:08:11.408Z,13.78
2024-04-30T07:09:11.447Z,13.65
2024-04-30T07:10:11.506Z,13.51
2024-04-30T07:11:11.530Z,13.90
2024-04-30T07:12:11.518Z,14.13
2024-04-30T07:13:11.575Z,14.42
2024-04-30T07:14:11.584Z,14.25
2024-04-30T07:15:11.610Z,14.50
2024-04-30T07:16:11.669Z,14.27
2024-04-30T07:17:11.707Z,14.31
2024-04-30T07:18:11.797Z,13.36
2024-04-30T07:19:11.762Z,12.62
2024-04-30T07:20:11.758Z,12.01
2024-04-30T07:21:11.798Z,11.60
2024-04-30T07:22:11.835Z,12.10
2024-04-30T07:23:11.835Z,12.24
2024-04-30T07:24:12.031Z,12.63
2024-04-30T07:25:11.909Z,12.81
2024-04-30T07:26:12.838Z,12.45
2024-04-30T07:27:11.902Z,12.20
2024-04-30T07:28:11.924Z,11.79
2024-04-30T07:29:12.056Z,10.95
2024-04-30T07:30:11.966Z,10.46
2024-04-30T07:31:11.992Z,10.13
2024-04-30T07:32:12.023Z,9.43
2024-04-30T07:33:12.144Z,9.18
2024-04-30T07:34:12.718Z,10.34
2024-04-30T07:35:12.149Z,10.96
2024-04-30T07:36:12.192Z,11.24
2024-04-30T07:37:12.214Z,12.34
2024-04-30T07:38:12.963Z,13.61
2024-04-30T07:39:12.358Z,16.23
2024-04-30T07:40:12.336Z,21.58
2024-04-30T07:41:12.320Z,22.94
2024-04-30T07:42:12.465Z,22.05
2024-04-30T07:43:12.483Z,23.06
2024-04-30T07:44:12.514Z,24.50
2024-04-30T07:45:12.504Z,25.57
2024-04-30T07:46:12.596Z,24.33
2024-04-30T07:47:12.668Z,24.81
2024-04-30T07:48:12.695Z,24.63
2024-04-30T07:49:12.681Z,24.32
2024-04-30T07:50:12.689Z,24.61
2024-04-30T07:51:12.717Z,26.41
2024-04-30T07:52:12.781Z,25.11
2024-04-30T07:53:12.787Z,23.39
2024-04-30T07:54:12.823Z,21.74
2024-04-30T07:55:12.976Z,19.95
2024-04-30T07:56:12.874Z,18.58
2024-04-30T07:57:12.895Z,17.94
2024-04-30T07:58:12.941Z,17.09
2024-04-30T07:59:12.958Z,16.53
2024-04-30T08:00:12.998Z,15.75
2024-04-30T08:01:13.102Z,15.36
2024-04-30T08:02:14.887Z,14.53
2024-04-30T08:03:13.228Z,14.26
2024-04-30T08:04:13.222Z,13.12
2024-04-30T08:05:13.148Z,12.09
2024-04-30T08:06:18.712Z,11.40
2024-04-30T08:07:14.165Z,11.24
2024-04-30T08:08:13.131Z,10.71
2024-04-30T08:09:13.114Z,9.98
2024-04-30T08:10:13.099Z,9.35
2024-04-30T08:11:18.099Z,8.82
2024-04-30T08:12:19.667Z,8.63
2024-04-30T08:13:20.017Z,8.76
2024-04-30T08:14:19.179Z,8.75
2024-04-30T08:15:14.308Z,8.73
2024-04-30T08:16:12.993Z,8.23
2024-04-30T08:17:12.946Z,7.78
2024-04-30T08:18:12.973Z,7.38
2024-04-30T08:19:13.055Z,7.32
2024-04-30T08:20:12.829Z,6.85
2024-04-30T08:21:12.809Z,6.42
2024-04-30T08:22:12.829Z,5.76
2024-04-30T08:23:12.735Z,4.78
2024-04-30T08:24:13.055Z,4.35
2024-04-30T08:25:12.705Z,3.95
2024-04-30T08:26:12.642Z,3.60
2024-04-30T08:27:12.618Z,3.41
2024-04-30T08:28:12.637Z,3.33
2024-04-30T08:29:12.559Z,3.37
2024-04-30T08:30:12.544Z,3.40
2024-04-30T08:31:12.552Z,3.35
2024-04-30T08:32:12.475Z,3.13
2024-04-30T08:33:12.573Z,2.92
2024-04-30T08:34:13.097Z,2.71
2024-04-30T08:35:12.400Z,2.54
2024-04-30T08:36:12.369Z,2.37
2024-04-30T08:37:12.382Z,2.09
2024-04-30T08:38:12.378Z,1.99
2024-04-30T08:39:12.561Z,1.84
2024-04-30T08:40:12.287Z,1.70
2024-04-30T08:41:12.255Z,1.68
2024-04-30T08:42:12.224Z,1.63
2024-04-30T08:43:12.237Z,1.58
2024-04-30T08:44:12.186Z,1.56
2024-04-30T08:45:12.149Z,1.57
2024-04-30T08:46:12.216Z,1.60
2024-04-30T08:47:12.303Z,1.60
2024-04-30T08:48:12.106Z,1.61
2024-04-30T08:49:17.576Z,1.63
2024-04-30T08:50:16.337Z,1.63
2024-04-30T08:51:12.015Z,1.63
2024-04-30T08:52:11.947Z,1.59
2024-04-30T08:53:11.922Z,1.53
2024-04-30T08:54:11.886Z,1.49
2024-04-30T08:55:11.914Z,1.49
2024-04-30T08:56:11.857Z,1.46
2024-04-30T08:57:11.831Z,1.43
2024-04-30T08:58:11.822Z,1.44
2024-04-30T08:59:11.769Z,1.46
2024-04-30T09:00:11.721Z,1.46
2024-04-30T09:01:11.794Z,1.45
2024-04-30T09:02:11.679Z,1.38
2024-04-30T09:03:11.654Z,1.31
2024-04-30T09:04:11.779Z,1.27
2024-04-30T09:05:11.621Z,1.25
2024-04-30T09:06:11.622Z,1.13
2024-04-30T09:07:11.734Z,1.08
2024-04-30T09:08:11.668Z,1.07
2024-04-30T09:09:11.658Z,1.05
2024-04-30T09:10:11.761Z,1.00
2024-04-30T09:11:11.782Z,0.98
2024-04-30T09:12:11.807Z,0.94
2024-04-30T09:13:11.798Z,0.89
2024-04-30T09:14:11.657Z,0.84
2024-04-30T09:15:11.641Z,0.82
2024-04-30T09:16:11.642Z,0.78
2024-04-30T09:17:11.709Z,0.78
2024-04-30T09:18:11.753Z,0.71
2024-04-30T09:19:11.727Z,0.62
2024-04-30T09:20:11.653Z,0.56
2024-04-30T09:21:17.059Z,0.53
2024-04-30T09:22:12.689Z,0.53
2024-04-30T09:23:11.618Z,0.52
2024-04-30T09:24:11.595Z,0.51
2024-04-30T09:25:11.599Z,0.48
2024-04-30T09:26:11.543Z,0.47
2024-04-30T09:27:11.529Z,0.51
2024-04-30T09:28:11.519Z,0.51
2024-04-30T09:29:11.587Z,0.51
2024-04-30T09:30:11.467Z,0.50
2024-04-30T09:31:11.588Z,0.52
2024-04-30T09:32:11.415Z,0.54
2024-04-30T09:33:11.653Z,0.53
2024-04-30T09:34:11.398Z,0.51
2024-04-30T09:35:11.338Z,0.50
2024-04-30T09:36:13.498Z,0.50
2024-04-30T09:37:11.314Z,0.50
2024-04-30T09:38:11.269Z,0.51
2024-04-30T09:39:11.260Z,0.50
2024-04-30T09:40:11.228Z,0.51
2024-04-30T09:41:11.184Z,0.50
2024-04-30T09:42:11.159Z,0.51
2024-04-30T09:43:11.145Z,0.52
2024-04-30T09:44:11.131Z,0.52
2024-04-30T09:45:11.075Z,0.53
2024-04-30T09:46:11.171Z,0.55
2024-04-30T09:47:11.159Z,0.55
2024-04-30T09:48:10.994Z,0.55
2024-04-30T09:49:11.020Z,0.55
2024-04-30T09:50:10.947Z,0.54
2024-04-30T09:51:10.918Z,0.55
2024-04-30T09:52:10.951Z,0.55
2024-04-30T09:53:10.896Z,0.54
2024-04-30T09:54:10.847Z,0.54
2024-04-30T09:55:10.837Z,0.54
2024-04-30T09:56:10.789Z,0.55
2024-04-30T09:57:10.755Z,0.56
2024-04-30T09:58:10.769Z,0.57
2024-04-30T09:59:11.095Z,0.58
2024-04-30T10:00:10.728Z,0.56
2024-04-30T10:01:10.748Z,0.53
2024-04-30T10:02:10.639Z,0.52
2024-04-30T10:03:10.682Z,0.52
2024-04-30T10:04:10.631Z,0.50
2024-04-30T10:05:10.613Z,0.51
2024-04-30T10:06:10.492Z,0.50
2024-04-30T10:07:10.482Z,0.50
2024-04-30T10:08:10.430Z,0.50
2024-04-30T10:09:10.430Z,0.50
2024-04-30T10:10:10.407Z,0.50
2024-04-30T10:11:10.425Z,0.53
2024-04-30T10:12:10.316Z,0.50
2024-04-30T10:13:10.331Z,0.50
2024-04-30T10:14:10.260Z,0.50
2024-04-30T10:15:10.229Z,0.50
2024-04-30T10:16:10.303Z,0.51
2024-04-30T10:17:10.373Z,0.50
2024-04-30T10:18:10.202Z,0.51
2024-04-30T10:19:10.165Z,0.52
2024-04-30T10:20:10.111Z,0.51
2024-04-30T10:21:10.086Z,0.51
2024-04-30T10:22:10.123Z,0.51
2024-04-30T10:23:10.024Z,0.50
2024-04-30T10:24:10.123Z,0.50
2024-04-30T10:25:10.024Z,0.52
2024-04-30T10:26:09.957Z,0.54
2024-04-30T10:27:09.910Z,0.55
2024-04-30T10:28:09.923Z,0.57
2024-04-30T10:29:09.873Z,0.59
2024-04-30T10:30:09.832Z,0.59
2024-04-30T10:31:09.903Z,0.60
2024-04-30T10:32:09.793Z,0.59
2024-04-30T10:33:09.856Z,0.60
2024-04-30T10:34:10.184Z,0.61
2024-04-30T10:35:09.715Z,0.62
2024-04-30T10:36:09.702Z,0.61
2024-04-30T10:37:09.712Z,0.61
2024-04-30T10:38:09.655Z,0.61
2024-04-30T10:39:09.632Z,0.64
2024-04-30T10:40:09.651Z,0.65
2024-04-30T10:41:09.607Z,0.66
2024-04-30T10:42:09.568Z,0.66
2024-04-30T10:43:09.583Z,0.63
2024-04-30T10:44:09.545Z,0.63
2024-04-30T10:45:09.492Z,0.62
2024-04-30T10:46:09.477Z,0.62
2024-04-30T10:47:09.473Z,0.61
2024-04-30T10:48:09.532Z,0.63
2024-04-30T10:49:10.752Z,0.63
2024-04-30T10:50:18.203Z,0.60
2024-04-30T10:51:10.481Z,0.59
2024-04-30T10:52:09.477Z,0.57
2024-04-30T10:53:09.411Z,0.56
2024-04-30T10:54:09.375Z,0.54
2024-04-30T10:55:09.379Z,0.50
2024-04-30T10:56:09.312Z,0.51
2024-04-30T10:57:09.283Z,0.50
2024-04-30T10:58:09.255Z,0.50
2024-04-30T10:59:09.203Z,0.52
2024-04-30T11:00:09.178Z,0.50
2024-04-30T11:01:09.192Z,0.50
2024-04-30T11:02:09.109Z,0.51
2024-04-30T11:03:09.140Z,0.50
2024-04-30T11:04:09.226Z,0.51
2024-04-30T11:05:09.263Z,0.51
2024-04-30T11:06:09.173Z,0.51
2024-04-30T11:07:09.219Z,0.50
2024-04-30T11:08:09.209Z,0.51
2024-04-30T11:09:09.270Z,0.51
2024-04-30T11:10:09.736Z,0.53
2024-04-30T11:11:09.324Z,0.52
2024-04-30T11:12:09.300Z,0.50
2024-04-30T11:13:09.334Z,0.52
2024-04-30T11:14:09.320Z,0.50
2024-04-30T11:15:09.627Z,0.52
2024-04-30T11:16:14.256Z,0.51
2024-04-30T11:17:10.339Z,0.51
2024-04-30T11:18:09.372Z,0.51
2024-04-30T11:19:11.227Z,0.51
2024-04-30T11:20:09.625Z,0.52
2024-04-30T11:21:09.219Z,0.52
2024-04-30T11:22:09.191Z,0.53
2024-04-30T11:23:09.128Z,0.53
2024-04-30T11:24:09.097Z,0.53
2024-04-30T11:25:09.139Z,0.53
2024-04-30T11:26:09.020Z,0.53
2024-04-30T11:27:08.978Z,0.52
2024-04-30T11:28:08.951Z,0.52
2024-04-30T11:29:23.295Z,0.51
2024-04-30T11:30:09.883Z,0.51
2024-04-30T11:31:08.862Z,0.51
2024-04-30T11:32:08.883Z,0.51
2024-04-30T11:33:08.866Z,0.51
2024-04-30T11:34:08.753Z,0.50
2024-04-30T11:35:08.710Z,0.51
2024-04-30T11:36:08.676Z,0.50
2024-04-30T11:37:08.694Z,0.51
2024-04-30T11:38:08.645Z,0.51
2024-04-30T11:39:09.873Z,0.50
2024-04-30T11:40:08.569Z,0.51
2024-04-30T11:41:08.502Z,0.51
2024-04-30T11:43:08.499Z,0.51
2024-04-30T11:44:08.387Z,0.50
2024-04-30T11:45:08.356Z,0.50
2024-04-30T11:46:08.344Z,0.49
2024-04-30T11:47:08.351Z,0.48
2024-04-30T11:48:08.316Z,0.51
2024-04-30T11:49:08.227Z,0.51
2024-04-30T11:50:08.205Z,0.52
2024-04-30T11:51:08.117Z,0.51
2024-04-30T11:52:08.107Z,0.51
2024-04-30T11:53:08.256Z,0.52
2024-04-30T11:54:07.999Z,0.51
2024-04-30T11:55:08.024Z,0.51
2024-04-30T11:56:07.939Z,0.50
2024-04-30T11:57:07.888Z,0.50
2024-04-30T11:58:07.937Z,0.50
2024-04-30T11:59:07.822Z,0.52
2024-04-30T12:00:07.789Z,0.50
2024-04-30T12:01:07.854Z,0.50
2024-04-30T12:02:07.709Z,0.51
2024-04-30T12:03:07.665Z,0.51
2024-04-30T12:04:07.628Z,0.50
2024-04-30T12:05:07.738Z,0.51
2024-04-30T12:06:07.544Z,0.51
2024-04-30T12:07:07.557Z,0.51
2024-04-30T12:08:07.457Z,0.50
2024-04-30T12:09:07.431Z,0.51
2024-04-30T12:10:07.410Z,0.52
2024-04-30T12:11:07.387Z,0.51
2024-04-30T12:12:07.295Z,0.50
2024-04-30T12:13:07.292Z,0.51
2024-04-30T12:14:07.278Z,0.50
2024-04-30T12:15:07.366Z,0.51
2024-04-30T12:16:07.377Z,0.51
2024-04-30T12:17:07.436Z,0.52
2024-04-30T12:18:07.431Z,0.52
2024-04-30T12:19:07.339Z,0.51
2024-04-30T12:20:07.682Z,0.52
2024-04-30T12:21:07.388Z,0.53
2024-04-30T12:22:07.452Z,0.53
2024-04-30T12:23:07.436Z,0.52
2024-04-30T12:24:07.470Z,0.51
2024-04-30T12:25:07.483Z,0.53
2024-04-30T12:26:07.461Z,0.52
2024-04-30T12:27:07.450Z,0.52
2024-04-30T12:28:07.479Z,0.51
2024-04-30T12:29:07.505Z,0.53
2024-04-30T12:30:07.497Z,0.52
2024-04-30T12:31:07.523Z,0.55
2024-04-30T12:32:11.201Z,0.53
2024-04-30T12:33:07.532Z,0.53
2024-04-30T12:34:07.489Z,0.53
2024-04-30T12:35:07.387Z,0.53
2024-04-30T12:36:07.360Z,0.53
2024-04-30T12:37:07.336Z,0.54
2024-04-30T12:38:07.271Z,0.54
2024-04-30T12:39:07.229Z,0.52
2024-04-30T12:40:08.350Z,0.52
2024-04-30T12:41:07.159Z,0.53
2024-04-30T12:42:07.123Z,0.52
2024-04-30T12:43:07.119Z,0.54
2024-04-30T12:44:07.073Z,0.53
2024-04-30T12:45:07.028Z,0.53
2024-04-30T12:46:06.993Z,0.53
2024-04-30T12:47:06.948Z,0.52
2024-04-30T12:48:06.956Z,0.55
2024-04-30T12:49:06.925Z,0.53
2024-04-30T12:50:06.842Z,0.55
2024-04-30T12:51:06.789Z,0.53
2024-04-30T12:52:06.869Z,0.54
2024-04-30T12:53:06.728Z,0.53
2024-04-30T12:54:06.670Z,0.53
2024-04-30T12:55:06.887Z,0.54
2024-04-30T12:56:06.582Z,0.53
2024-04-30T12:57:06.541Z,0.54
2024-04-30T12:58:06.509Z,0.53
2024-04-30T12:59:06.457Z,0.54
2024-04-30T13:00:06.437Z,0.53
2024-04-30T13:01:06.563Z,0.52
2024-04-30T13:02:06.416Z,0.53
2024-04-30T13:03:06.560Z,0.53
2024-04-30T13:04:06.412Z,0.54
2024-04-30T13:05:06.353Z,0.53
2024-04-30T13:06:06.176Z,0.53
2024-04-30T13:07:06.226Z,0.53
2024-04-30T13:08:06.170Z,0.53
2024-04-30T13:09:06.185Z,0.54
2024-04-30T13:10:06.270Z,0.53
2024-04-30T13:11:06.259Z,0.53
2024-04-30T13:12:06.145Z,0.54
2024-04-30T13:13:06.199Z,0.52
2024-04-30T13:14:06.146Z,0.53
2024-04-30T13:15:06.153Z,0.51